sensor_id;sensor_type;location;lat;lon;timestamp;temperature;humidity
16060;DHT22;8134;49.552;7.632;2023-12-28T00:03:58;7.50;99.90
16060;DHT22;8134;49.552;7.632;2023-12-28T00:06:24;7.50;99.90
16060;DHT22;8134;49.552;7.632;2023-12-28T00:08:50;7.50;99.90
16060;DHT22;8134;49.552;7.632;2023-12-28T00:11:16;7.60;99.90
16060;DHT22;8134;49.552;7.632;2023-12-28T00:13:41;7.60;99.90
16060;DHT22;8134;49.552;7.632;2023-12-28T00:16:07;7.70;99.90
16060;DHT22;8134;49.552;7.632;2023-12-28T00:24:39;7.80;99.90
16060;DHT22;8134;49.552;7.632;2023-12-28T00:27:05;7.80;99.90
16060;DHT22;8134;49.552;7.632;2023-12-28T00:29:31;7.80;99.90
16060;DHT22;8134;49.552;7.632;2023-12-28T00:31:57;7.80;99.90
16060;DHT22;8134;49.552;7.632;2023-12-28T00:40:32;8.00;99.90
16060;DHT22;8134;49.552;7.632;2023-12-28T00:42:57;8.00;99.90
16060;DHT22;8134;49.552;7.632;2023-12-28T00:45:23;8.00;99.90
16060;DHT22;8134;49.552;7.632;2023-12-28T00:47:49;8.10;99.90
16060;DHT22;8134;49.552;7.632;2023-12-28T00:53:20;8.10;99.90
16060;DHT22;8134;49.552;7.632;2023-12-28T00:55:46;8.20;99.90
16060;DHT22;8134;49.552;7.632;2023-12-28T00:58:11;8.20;99.90
16060;DHT22;8134;49.552;7.632;2023-12-28T01:06:46;8.30;99.90
16060;DHT22;8134;49.552;7.632;2023-12-28T01:14:59;8.50;99.90
16060;DHT22;8134;49.552;7.632;2023-12-28T01:17:25;8.50;99.90
16060;DHT22;8134;49.552;7.632;2023-12-28T01:19:51;8.50;99.90
16060;DHT22;8134;49.552;7.632;2023-12-28T01:22:16;8.60;99.90
16060;DHT22;8134;49.552;7.632;2023-12-28T01:24:45;8.60;99.90
16060;DHT22;8134;49.552;7.632;2023-12-28T01:32:56;8.70;99.90
16060;DHT22;8134;49.552;7.632;2023-12-28T01:35:22;8.80;99.90
16060;DHT22;8134;49.552;7.632;2023-12-28T01:37:48;8.80;99.90
16060;DHT22;8134;49.552;7.632;2023-12-28T01:40:14;8.80;99.90
16060;DHT22;8134;49.552;7.632;2023-12-28T01:42:40;8.80;99.90
16060;DHT22;8134;49.552;7.632;2023-12-28T01:51:15;8.80;99.90
16060;DHT22;8134;49.552;7.632;2023-12-28T01:53:41;8.80;99.90
16060;DHT22;8134;49.552;7.632;2023-12-28T01:56:07;8.80;99.90
16060;DHT22;8134;49.552;7.632;2023-12-28T01:58:33;8.80;99.90
16060;DHT22;8134;49.552;7.632;2023-12-28T02:00:59;8.70;99.90
16060;DHT22;8134;49.552;7.632;2023-12-28T02:03:26;8.70;99.90
16060;DHT22;8134;49.552;7.632;2023-12-28T02:11:51;8.70;99.90
16060;DHT22;8134;49.552;7.632;2023-12-28T02:14:16;8.70;99.90
16060;DHT22;8134;49.552;7.632;2023-12-28T02:17:03;8.70;99.90
16060;DHT22;8134;49.552;7.632;2023-12-28T02:19:38;8.60;99.90
16060;DHT22;8134;49.552;7.632;2023-12-28T02:27:48;8.60;99.90
16060;DHT22;8134;49.552;7.632;2023-12-28T02:30:18;8.60;99.90
16060;DHT22;8134;49.552;7.632;2023-12-28T02:32:47;8.60;99.90
16060;DHT22;8134;49.552;7.632;2023-12-28T02:35:23;8.50;99.90
16060;DHT22;8134;49.552;7.632;2023-12-28T02:43:59;8.50;99.90
16060;DHT22;8134;49.552;7.632;2023-12-28T02:46:25;8.50;99.90
16060;DHT22;8134;49.552;7.632;2023-12-28T02:48:53;8.40;99.90
16060;DHT22;8134;49.552;7.632;2023-12-28T02:51:22;8.50;99.90
16060;DHT22;8134;49.552;7.632;2023-12-28T02:53:48;8.50;99.90
16060;DHT22;8134;49.552;7.632;2023-12-28T02:56:13;8.50;99.90
16060;DHT22;8134;49.552;7.632;2023-12-28T02:58:39;8.50;99.90
16060;DHT22;8134;49.552;7.632;2023-12-28T03:01:05;8.50;99.90
16060;DHT22;8134;49.552;7.632;2023-12-28T03:06:33;8.40;99.90
16060;DHT22;8134;49.552;7.632;2023-12-28T03:09:00;8.40;99.90
16060;DHT22;8134;49.552;7.632;2023-12-28T03:11:26;8.40;99.90
16060;DHT22;8134;49.552;7.632;2023-12-28T03:13:52;8.50;99.90
16060;DHT22;8134;49.552;7.632;2023-12-28T03:16:17;8.40;99.90
16060;DHT22;8134;49.552;7.632;2023-12-28T03:18:43;8.30;99.90
16060;DHT22;8134;49.552;7.632;2023-12-28T03:24:11;8.30;99.90
16060;DHT22;8134;49.552;7.632;2023-12-28T03:26:40;8.40;99.90
16060;DHT22;8134;49.552;7.632;2023-12-28T03:29:06;8.30;99.90
16060;DHT22;8134;49.552;7.632;2023-12-28T03:37:03;8.40;99.90
16060;DHT22;8134;49.552;7.632;2023-12-28T03:39:29;8.40;99.90
16060;DHT22;8134;49.552;7.632;2023-12-28T03:41:54;8.40;99.90
16060;DHT22;8134;49.552;7.632;2023-12-28T03:44:20;8.40;99.90
16060;DHT22;8134;49.552;7.632;2023-12-28T03:46:49;8.40;99.90
16060;DHT22;8134;49.552;7.632;2023-12-28T03:49:16;8.40;99.90
16060;DHT22;8134;49.552;7.632;2023-12-28T03:51:41;8.40;99.90
16060;DHT22;8134;49.552;7.632;2023-12-28T03:59:37;8.50;99.90
16060;DHT22;8134;49.552;7.632;2023-12-28T04:02:02;8.50;99.90
16060;DHT22;8134;49.552;7.632;2023-12-28T04:04:28;8.50;99.90
16060;DHT22;8134;49.552;7.632;2023-12-28T04:06:54;8.50;99.90
16060;DHT22;8134;49.552;7.632;2023-12-28T04:09:19;8.50;99.90
16060;DHT22;8134;49.552;7.632;2023-12-28T04:14:48;8.50;99.90
16060;DHT22;8134;49.552;7.632;2023-12-28T04:17:14;8.50;99.90
16060;DHT22;8134;49.552;7.632;2023-12-28T04:19:39;8.50;99.90
16060;DHT22;8134;49.552;7.632;2023-12-28T04:22:05;8.50;99.90
16060;DHT22;8134;49.552;7.632;2023-12-28T04:24:30;8.60;99.90
16060;DHT22;8134;49.552;7.632;2023-12-28T04:33:05;8.40;99.90
16060;DHT22;8134;49.552;7.632;2023-12-28T04:44:45;8.50;99.90
16060;DHT22;8134;49.552;7.632;2023-12-28T04:47:11;8.50;99.90
16060;DHT22;8134;49.552;7.632;2023-12-28T04:49:36;8.50;99.90
16060;DHT22;8134;49.552;7.632;2023-12-28T04:55:05;8.50;99.90
16060;DHT22;8134;49.552;7.632;2023-12-28T04:57:31;8.50;99.90
16060;DHT22;8134;49.552;7.632;2023-12-28T04:59:57;8.60;99.90
16060;DHT22;8134;49.552;7.632;2023-12-28T05:02:22;8.60;99.90
16060;DHT22;8134;49.552;7.632;2023-12-28T05:10:57;8.60;99.90
16060;DHT22;8134;49.552;7.632;2023-12-28T05:19:32;8.60;99.90
16060;DHT22;8134;49.552;7.632;2023-12-28T05:21:59;8.60;99.90
16060;DHT22;8134;49.552;7.632;2023-12-28T05:24:29;8.70;99.90
16060;DHT22;8134;49.552;7.632;2023-12-28T05:32:46;8.80;99.90
16060;DHT22;8134;49.552;7.632;2023-12-28T05:35:13;8.70;99.90
16060;DHT22;8134;49.552;7.632;2023-12-28T05:43:33;8.80;99.90
16060;DHT22;8134;49.552;7.632;2023-12-28T05:45:59;8.80;99.90
16060;DHT22;8134;49.552;7.632;2023-12-28T05:48:24;8.80;99.90
16060;DHT22;8134;49.552;7.632;2023-12-28T05:56:40;8.80;99.90
16060;DHT22;8134;49.552;7.632;2023-12-28T05:59:06;8.90;99.90
16060;DHT22;8134;49.552;7.632;2023-12-28T06:01:41;8.90;99.90
16060;DHT22;8134;49.552;7.632;2023-12-28T06:04:07;9.00;99.90
16060;DHT22;8134;49.552;7.632;2023-12-28T06:06:33;8.90;99.90
16060;DHT22;8134;49.552;7.632;2023-12-28T06:12:02;8.90;99.90
16060;DHT22;8134;49.552;7.632;2023-12-28T06:14:28;9.00;99.90
16060;DHT22;8134;49.552;7.632;2023-12-28T06:16:55;9.00;99.90
16060;DHT22;8134;49.552;7.632;2023-12-28T06:19:21;9.00;99.90
16060;DHT22;8134;49.552;7.632;2023-12-28T06:24:50;9.00;99.90
16060;DHT22;8134;49.552;7.632;2023-12-28T06:27:16;9.00;99.90
16060;DHT22;8134;49.552;7.632;2023-12-28T06:29:41;9.00;99.90
16060;DHT22;8134;49.552;7.632;2023-12-28T06:35:10;9.00;99.90
16060;DHT22;8134;49.552;7.632;2023-12-28T06:37:36;9.00;99.90
16060;DHT22;8134;49.552;7.632;2023-12-28T06:40:01;9.00;99.90
16060;DHT22;8134;49.552;7.632;2023-12-28T06:48:37;9.10;99.90
16060;DHT22;8134;49.552;7.632;2023-12-28T06:57:19;9.10;99.90
16060;DHT22;8134;49.552;7.632;2023-12-28T06:59:44;9.10;99.90
16060;DHT22;8134;49.552;7.632;2023-12-28T07:02:10;9.10;99.90
16060;DHT22;8134;49.552;7.632;2023-12-28T07:04:36;9.10;99.90
16060;DHT22;8134;49.552;7.632;2023-12-28T07:07:02;9.10;99.90
16060;DHT22;8134;49.552;7.632;2023-12-28T07:09:27;9.20;99.90
16060;DHT22;8134;49.552;7.632;2023-12-28T07:17:26;9.20;99.90
16060;DHT22;8134;49.552;7.632;2023-12-28T07:19:52;9.20;99.90
16060;DHT22;8134;49.552;7.632;2023-12-28T07:22:21;9.20;99.90
16060;DHT22;8134;49.552;7.632;2023-12-28T07:30:56;9.30;99.90
16060;DHT22;8134;49.552;7.632;2023-12-28T07:33:21;9.20;99.90
16060;DHT22;8134;49.552;7.632;2023-12-28T07:35:47;9.20;99.90
16060;DHT22;8134;49.552;7.632;2023-12-28T07:44:06;9.20;99.90
16060;DHT22;8134;49.552;7.632;2023-12-28T07:46:31;9.20;99.90
16060;DHT22;8134;49.552;7.632;2023-12-28T07:54:53;9.20;99.90
16060;DHT22;8134;49.552;7.632;2023-12-28T08:06:23;9.20;99.90
16060;DHT22;8134;49.552;7.632;2023-12-28T08:14:58;9.20;99.90
16060;DHT22;8134;49.552;7.632;2023-12-28T08:17:25;9.20;99.90
16060;DHT22;8134;49.552;7.632;2023-12-28T08:19:50;9.20;99.90
16060;DHT22;8134;49.552;7.632;2023-12-28T08:22:16;9.20;99.90
16060;DHT22;8134;49.552;7.632;2023-12-28T08:30:36;9.20;99.90
16060;DHT22;8134;49.552;7.632;2023-12-28T08:33:01;9.20;99.90
16060;DHT22;8134;49.552;7.632;2023-12-28T08:35:27;9.20;99.90
16060;DHT22;8134;49.552;7.632;2023-12-28T08:37:52;9.20;99.90
16060;DHT22;8134;49.552;7.632;2023-12-28T08:40:18;9.20;99.90
16060;DHT22;8134;49.552;7.632;2023-12-28T08:42:43;9.30;99.90
16060;DHT22;8134;49.552;7.632;2023-12-28T08:45:10;9.30;99.90
16060;DHT22;8134;49.552;7.632;2023-12-28T08:47:36;9.20;99.90
16060;DHT22;8134;49.552;7.632;2023-12-28T08:50:01;9.30;99.90
16060;DHT22;8134;49.552;7.632;2023-12-28T08:52:26;9.20;99.90
16060;DHT22;8134;49.552;7.632;2023-12-28T08:54:52;9.20;99.90
16060;DHT22;8134;49.552;7.632;2023-12-28T08:57:18;9.30;99.90
16060;DHT22;8134;49.552;7.632;2023-12-28T08:59:43;9.20;99.90
16060;DHT22;8134;49.552;7.632;2023-12-28T09:02:08;9.30;99.90
16060;DHT22;8134;49.552;7.632;2023-12-28T09:04:34;9.30;99.90
16060;DHT22;8134;49.552;7.632;2023-12-28T09:06:59;9.30;99.90
16060;DHT22;8134;49.552;7.632;2023-12-28T09:09:25;9.40;99.90
16060;DHT22;8134;49.552;7.632;2023-12-28T09:11:51;9.30;99.90
16060;DHT22;8134;49.552;7.632;2023-12-28T09:14:16;9.30;99.90
16060;DHT22;8134;49.552;7.632;2023-12-28T09:16:42;9.40;99.90
16060;DHT22;8134;49.552;7.632;2023-12-28T09:19:09;9.40;99.90
16060;DHT22;8134;49.552;7.632;2023-12-28T09:21:35;9.40;99.90
16060;DHT22;8134;49.552;7.632;2023-12-28T09:24:00;9.40;99.90
16060;DHT22;8134;49.552;7.632;2023-12-28T09:26:26;9.40;99.90
16060;DHT22;8134;49.552;7.632;2023-12-28T09:28:52;9.50;99.90
16060;DHT22;8134;49.552;7.632;2023-12-28T09:31:17;9.50;99.90
16060;DHT22;8134;49.552;7.632;2023-12-28T09:33:43;9.50;99.90
16060;DHT22;8134;49.552;7.632;2023-12-28T09:36:09;9.50;99.90
16060;DHT22;8134;49.552;7.632;2023-12-28T09:38:34;9.60;99.90
16060;DHT22;8134;49.552;7.632;2023-12-28T09:41:04;9.60;99.90
16060;DHT22;8134;49.552;7.632;2023-12-28T09:43:35;9.60;99.90
16060;DHT22;8134;49.552;7.632;2023-12-28T09:46:06;9.60;99.90
16060;DHT22;8134;49.552;7.632;2023-12-28T09:48:32;9.70;99.90
16060;DHT22;8134;49.552;7.632;2023-12-28T09:50:58;9.70;99.90
16060;DHT22;8134;49.552;7.632;2023-12-28T09:53:24;9.70;99.90
16060;DHT22;8134;49.552;7.632;2023-12-28T09:55:50;9.70;99.90
16060;DHT22;8134;49.552;7.632;2023-12-28T09:58:19;9.70;99.90
16060;DHT22;8134;49.552;7.632;2023-12-28T10:00:46;9.70;99.90
16060;DHT22;8134;49.552;7.632;2023-12-28T10:03:13;9.70;99.90
16060;DHT22;8134;49.552;7.632;2023-12-28T10:05:42;9.70;99.90
16060;DHT22;8134;49.552;7.632;2023-12-28T10:08:10;9.70;99.90
16060;DHT22;8134;49.552;7.632;2023-12-28T10:10:39;9.70;99.90
16060;DHT22;8134;49.552;7.632;2023-12-28T10:13:05;9.80;99.90
16060;DHT22;8134;49.552;7.632;2023-12-28T10:15:31;9.80;99.90
16060;DHT22;8134;49.552;7.632;2023-12-28T10:17:57;9.80;99.90
16060;DHT22;8134;49.552;7.632;2023-12-28T10:20:25;9.90;99.90
16060;DHT22;8134;49.552;7.632;2023-12-28T10:22:51;9.90;99.90
16060;DHT22;8134;49.552;7.632;2023-12-28T10:25:17;9.90;99.90
16060;DHT22;8134;49.552;7.632;2023-12-28T10:30:47;9.90;99.90
16060;DHT22;8134;49.552;7.632;2023-12-28T10:33:15;9.90;99.90
16060;DHT22;8134;49.552;7.632;2023-12-28T10:35:44;9.90;99.90
16060;DHT22;8134;49.552;7.632;2023-12-28T10:38:10;9.90;99.90
16060;DHT22;8134;49.552;7.632;2023-12-28T10:40:39;9.90;99.90
16060;DHT22;8134;49.552;7.632;2023-12-28T10:43:08;9.90;99.90
16060;DHT22;8134;49.552;7.632;2023-12-28T10:45:35;9.90;99.90
16060;DHT22;8134;49.552;7.632;2023-12-28T10:48:07;9.90;99.90
16060;DHT22;8134;49.552;7.632;2023-12-28T10:50:40;9.90;99.90
16060;DHT22;8134;49.552;7.632;2023-12-28T10:53:21;9.90;99.90
16060;DHT22;8134;49.552;7.632;2023-12-28T10:55:58;9.90;99.90
16060;DHT22;8134;49.552;7.632;2023-12-28T10:58:33;9.90;99.90
16060;DHT22;8134;49.552;7.632;2023-12-28T11:01:01;10.00;99.90
16060;DHT22;8134;49.552;7.632;2023-12-28T11:03:28;10.00;99.90
16060;DHT22;8134;49.552;7.632;2023-12-28T11:05:55;10.10;99.90
16060;DHT22;8134;49.552;7.632;2023-12-28T11:08:21;10.20;99.90
16060;DHT22;8134;49.552;7.632;2023-12-28T11:10:48;10.20;99.90
16060;DHT22;8134;49.552;7.632;2023-12-28T11:13:15;10.10;99.90
16060;DHT22;8134;49.552;7.632;2023-12-28T11:15:41;10.10;99.90
16060;DHT22;8134;49.552;7.632;2023-12-28T11:18:07;10.20;99.90
16060;DHT22;8134;49.552;7.632;2023-12-28T11:20:33;10.20;99.90
16060;DHT22;8134;49.552;7.632;2023-12-28T11:22:58;10.20;99.90
16060;DHT22;8134;49.552;7.632;2023-12-28T11:25:24;10.30;99.90
16060;DHT22;8134;49.552;7.632;2023-12-28T11:27:55;10.30;99.90
16060;DHT22;8134;49.552;7.632;2023-12-28T11:30:21;10.20;99.90
16060;DHT22;8134;49.552;7.632;2023-12-28T11:32:50;10.20;99.90
16060;DHT22;8134;49.552;7.632;2023-12-28T11:35:21;10.20;99.90
16060;DHT22;8134;49.552;7.632;2023-12-28T11:37:47;10.20;99.90
16060;DHT22;8134;49.552;7.632;2023-12-28T11:40:17;10.20;99.90
16060;DHT22;8134;49.552;7.632;2023-12-28T11:42:50;10.20;99.90
16060;DHT22;8134;49.552;7.632;2023-12-28T11:45:17;10.20;99.90
16060;DHT22;8134;49.552;7.632;2023-12-28T11:47:43;10.10;99.90
16060;DHT22;8134;49.552;7.632;2023-12-28T11:50:08;10.20;99.90
16060;DHT22;8134;49.552;7.632;2023-12-28T11:52:34;10.10;99.90
16060;DHT22;8134;49.552;7.632;2023-12-28T11:54:59;10.20;99.90
16060;DHT22;8134;49.552;7.632;2023-12-28T11:57:25;10.10;99.90
16060;DHT22;8134;49.552;7.632;2023-12-28T11:59:57;10.20;99.90
16060;DHT22;8134;49.552;7.632;2023-12-28T12:02:24;10.20;99.90
16060;DHT22;8134;49.552;7.632;2023-12-28T12:04:49;10.20;99.90
16060;DHT22;8134;49.552;7.632;2023-12-28T12:07:15;10.20;99.90
16060;DHT22;8134;49.552;7.632;2023-12-28T12:09:40;10.20;99.90
16060;DHT22;8134;49.552;7.632;2023-12-28T12:12:06;10.30;99.90
16060;DHT22;8134;49.552;7.632;2023-12-28T12:14:32;10.20;99.90
16060;DHT22;8134;49.552;7.632;2023-12-28T12:16:59;10.10;99.90
16060;DHT22;8134;49.552;7.632;2023-12-28T12:19:25;10.10;99.90
16060;DHT22;8134;49.552;7.632;2023-12-28T12:21:54;10.10;99.90
16060;DHT22;8134;49.552;7.632;2023-12-28T12:24:20;10.10;99.90
16060;DHT22;8134;49.552;7.632;2023-12-28T12:26:46;10.20;99.90
16060;DHT22;8134;49.552;7.632;2023-12-28T12:29:12;10.10;99.90
16060;DHT22;8134;49.552;7.632;2023-12-28T12:31:38;10.00;99.90
16060;DHT22;8134;49.552;7.632;2023-12-28T12:34:10;10.00;99.90
16060;DHT22;8134;49.552;7.632;2023-12-28T12:36:36;10.00;99.90
16060;DHT22;8134;49.552;7.632;2023-12-28T12:39:02;10.00;99.90
16060;DHT22;8134;49.552;7.632;2023-12-28T12:41:32;10.00;99.90
16060;DHT22;8134;49.552;7.632;2023-12-28T12:43:57;10.00;99.90
16060;DHT22;8134;49.552;7.632;2023-12-28T12:46:24;10.00;99.90
16060;DHT22;8134;49.552;7.632;2023-12-28T12:48:56;10.00;99.90
16060;DHT22;8134;49.552;7.632;2023-12-28T12:51:22;10.00;99.90
16060;DHT22;8134;49.552;7.632;2023-12-28T12:53:48;10.00;99.90
16060;DHT22;8134;49.552;7.632;2023-12-28T12:56:13;10.00;99.90
16060;DHT22;8134;49.552;7.632;2023-12-28T12:58:39;10.00;99.90
16060;DHT22;8134;49.552;7.632;2023-12-28T13:01:05;9.90;99.90
16060;DHT22;8134;49.552;7.632;2023-12-28T13:03:30;10.00;99.90
16060;DHT22;8134;49.552;7.632;2023-12-28T13:05:56;9.90;99.90
16060;DHT22;8134;49.552;7.632;2023-12-28T13:08:22;9.90;99.90
16060;DHT22;8134;49.552;7.632;2023-12-28T13:10:47;9.90;99.90
16060;DHT22;8134;49.552;7.632;2023-12-28T13:13:13;9.90;99.90
16060;DHT22;8134;49.552;7.632;2023-12-28T13:15:38;9.90;99.90
16060;DHT22;8134;49.552;7.632;2023-12-28T13:18:04;9.90;99.90
16060;DHT22;8134;49.552;7.632;2023-12-28T13:20:30;9.90;99.90
16060;DHT22;8134;49.552;7.632;2023-12-28T13:22:55;9.90;99.90
16060;DHT22;8134;49.552;7.632;2023-12-28T13:25:22;9.90;99.90
16060;DHT22;8134;49.552;7.632;2023-12-28T13:27:47;9.90;99.90
16060;DHT22;8134;49.552;7.632;2023-12-28T13:30:13;9.90;99.90
16060;DHT22;8134;49.552;7.632;2023-12-28T13:32:38;9.90;99.90
16060;DHT22;8134;49.552;7.632;2023-12-28T13:35:04;9.90;99.90
16060;DHT22;8134;49.552;7.632;2023-12-28T13:37:30;9.90;99.90
16060;DHT22;8134;49.552;7.632;2023-12-28T13:39:55;10.00;99.90
16060;DHT22;8134;49.552;7.632;2023-12-28T13:42:21;9.90;99.90
16060;DHT22;8134;49.552;7.632;2023-12-28T13:44:46;10.00;99.90
16060;DHT22;8134;49.552;7.632;2023-12-28T13:47:12;10.10;99.90
16060;DHT22;8134;49.552;7.632;2023-12-28T13:49:37;10.10;99.90
16060;DHT22;8134;49.552;7.632;2023-12-28T13:52:03;10.10;99.90
16060;DHT22;8134;49.552;7.632;2023-12-28T13:54:29;10.10;99.90
16060;DHT22;8134;49.552;7.632;2023-12-28T13:56:55;10.10;99.90
16060;DHT22;8134;49.552;7.632;2023-12-28T13:59:23;10.10;99.90
16060;DHT22;8134;49.552;7.632;2023-12-28T14:01:48;10.10;99.90
16060;DHT22;8134;49.552;7.632;2023-12-28T14:04:14;10.10;99.90
16060;DHT22;8134;49.552;7.632;2023-12-28T14:06:40;10.00;99.90
16060;DHT22;8134;49.552;7.632;2023-12-28T14:09:05;10.10;99.90
16060;DHT22;8134;49.552;7.632;2023-12-28T14:11:31;10.10;99.90
16060;DHT22;8134;49.552;7.632;2023-12-28T14:13:59;10.10;99.90
16060;DHT22;8134;49.552;7.632;2023-12-28T14:16:24;10.00;99.90
16060;DHT22;8134;49.552;7.632;2023-12-28T14:18:50;10.00;99.90
16060;DHT22;8134;49.552;7.632;2023-12-28T14:21:17;10.00;99.90
16060;DHT22;8134;49.552;7.632;2023-12-28T14:23:43;10.00;99.90
16060;DHT22;8134;49.552;7.632;2023-12-28T14:26:13;10.00;99.90
16060;DHT22;8134;49.552;7.632;2023-12-28T14:28:42;10.00;99.90
16060;DHT22;8134;49.552;7.632;2023-12-28T14:31:08;10.00;99.90
16060;DHT22;8134;49.552;7.632;2023-12-28T14:33:34;10.10;99.90
16060;DHT22;8134;49.552;7.632;2023-12-28T14:36:00;10.00;99.90
16060;DHT22;8134;49.552;7.632;2023-12-28T14:38:26;10.10;99.90
16060;DHT22;8134;49.552;7.632;2023-12-28T14:40:52;10.10;99.90
16060;DHT22;8134;49.552;7.632;2023-12-28T14:43:17;10.00;99.90
16060;DHT22;8134;49.552;7.632;2023-12-28T14:45:43;10.00;99.90
16060;DHT22;8134;49.552;7.632;2023-12-28T14:48:08;10.00;99.90
16060;DHT22;8134;49.552;7.632;2023-12-28T14:50:34;10.00;99.90
16060;DHT22;8134;49.552;7.632;2023-12-28T14:53:00;10.00;99.90
16060;DHT22;8134;49.552;7.632;2023-12-28T14:55:26;10.00;99.90
16060;DHT22;8134;49.552;7.632;2023-12-28T14:57:53;10.10;99.90
16060;DHT22;8134;49.552;7.632;2023-12-28T15:00:18;9.90;99.90
16060;DHT22;8134;49.552;7.632;2023-12-28T15:02:44;10.00;99.90
16060;DHT22;8134;49.552;7.632;2023-12-28T15:05:09;10.00;99.90
16060;DHT22;8134;49.552;7.632;2023-12-28T15:07:37;10.00;99.90
16060;DHT22;8134;49.552;7.632;2023-12-28T15:10:03;10.00;99.90
16060;DHT22;8134;49.552;7.632;2023-12-28T15:12:29;10.00;99.90
16060;DHT22;8134;49.552;7.632;2023-12-28T15:14:54;10.00;99.90
16060;DHT22;8134;49.552;7.632;2023-12-28T15:17:23;10.10;99.90
16060;DHT22;8134;49.552;7.632;2023-12-28T15:19:49;10.10;99.90
16060;DHT22;8134;49.552;7.632;2023-12-28T15:22:14;10.10;99.90
16060;DHT22;8134;49.552;7.632;2023-12-28T15:24:40;10.10;99.90
16060;DHT22;8134;49.552;7.632;2023-12-28T15:27:05;10.10;99.90
16060;DHT22;8134;49.552;7.632;2023-12-28T15:29:32;10.10;99.90
16060;DHT22;8134;49.552;7.632;2023-12-28T15:31:58;10.00;99.90
16060;DHT22;8134;49.552;7.632;2023-12-28T15:34:23;10.10;99.90
16060;DHT22;8134;49.552;7.632;2023-12-28T15:36:49;10.00;99.90
16060;DHT22;8134;49.552;7.632;2023-12-28T15:39:14;10.10;99.90
16060;DHT22;8134;49.552;7.632;2023-12-28T15:41:40;10.00;99.90
16060;DHT22;8134;49.552;7.632;2023-12-28T15:44:05;10.00;99.90
16060;DHT22;8134;49.552;7.632;2023-12-28T15:46:31;10.00;99.90
16060;DHT22;8134;49.552;7.632;2023-12-28T15:48:57;10.00;99.90
16060;DHT22;8134;49.552;7.632;2023-12-28T15:51:22;10.00;99.90
16060;DHT22;8134;49.552;7.632;2023-12-28T15:53:50;10.00;99.90
16060;DHT22;8134;49.552;7.632;2023-12-28T15:56:16;9.90;99.90
16060;DHT22;8134;49.552;7.632;2023-12-28T15:58:41;9.90;99.90
16060;DHT22;8134;49.552;7.632;2023-12-28T16:01:07;9.90;99.90
16060;DHT22;8134;49.552;7.632;2023-12-28T16:03:33;9.90;99.90
16060;DHT22;8134;49.552;7.632;2023-12-28T16:05:58;9.80;99.90
16060;DHT22;8134;49.552;7.632;2023-12-28T16:08:24;9.80;99.90
16060;DHT22;8134;49.552;7.632;2023-12-28T16:10:50;9.90;99.90
16060;DHT22;8134;49.552;7.632;2023-12-28T16:13:15;9.80;99.90
16060;DHT22;8134;49.552;7.632;2023-12-28T16:15:41;9.80;99.90
16060;DHT22;8134;49.552;7.632;2023-12-28T16:18:07;9.80;99.90
16060;DHT22;8134;49.552;7.632;2023-12-28T16:20:33;9.90;99.90
16060;DHT22;8134;49.552;7.632;2023-12-28T16:22:58;9.90;99.90
16060;DHT22;8134;49.552;7.632;2023-12-28T16:25:24;9.90;99.90
16060;DHT22;8134;49.552;7.632;2023-12-28T16:27:49;9.90;99.90
16060;DHT22;8134;49.552;7.632;2023-12-28T16:30:20;9.90;99.90
16060;DHT22;8134;49.552;7.632;2023-12-28T16:32:45;9.90;99.90
16060;DHT22;8134;49.552;7.632;2023-12-28T16:35:13;9.90;99.90
16060;DHT22;8134;49.552;7.632;2023-12-28T16:37:39;9.90;99.90
16060;DHT22;8134;49.552;7.632;2023-12-28T16:40:05;10.10;99.90
16060;DHT22;8134;49.552;7.632;2023-12-28T16:42:30;10.00;99.90
16060;DHT22;8134;49.552;7.632;2023-12-28T16:44:56;10.00;99.90
16060;DHT22;8134;49.552;7.632;2023-12-28T16:47:21;10.00;99.90
16060;DHT22;8134;49.552;7.632;2023-12-28T16:49:47;9.90;99.90
16060;DHT22;8134;49.552;7.632;2023-12-28T16:52:12;9.90;99.90
16060;DHT22;8134;49.552;7.632;2023-12-28T16:54:38;9.90;99.90
16060;DHT22;8134;49.552;7.632;2023-12-28T16:57:04;9.90;99.90
16060;DHT22;8134;49.552;7.632;2023-12-28T16:59:29;9.90;99.90
16060;DHT22;8134;49.552;7.632;2023-12-28T17:01:55;9.90;99.90
16060;DHT22;8134;49.552;7.632;2023-12-28T17:04:21;9.90;99.90
16060;DHT22;8134;49.552;7.632;2023-12-28T17:06:46;9.90;99.90
16060;DHT22;8134;49.552;7.632;2023-12-28T17:09:12;9.90;99.90
16060;DHT22;8134;49.552;7.632;2023-12-28T17:11:40;9.90;99.90
16060;DHT22;8134;49.552;7.632;2023-12-28T17:14:09;9.90;99.90
16060;DHT22;8134;49.552;7.632;2023-12-28T17:16:34;9.90;99.90
16060;DHT22;8134;49.552;7.632;2023-12-28T17:19:00;9.90;99.90
16060;DHT22;8134;49.552;7.632;2023-12-28T17:21:28;9.90;99.90
16060;DHT22;8134;49.552;7.632;2023-12-28T17:23:55;9.90;99.90
16060;DHT22;8134;49.552;7.632;2023-12-28T17:26:27;9.90;99.90
16060;DHT22;8134;49.552;7.632;2023-12-28T17:28:58;9.90;99.90
16060;DHT22;8134;49.552;7.632;2023-12-28T17:31:24;9.90;99.90
16060;DHT22;8134;49.552;7.632;2023-12-28T17:33:51;9.90;99.90
16060;DHT22;8134;49.552;7.632;2023-12-28T17:36:17;10.00;99.90
16060;DHT22;8134;49.552;7.632;2023-12-28T17:38:43;10.00;99.90
16060;DHT22;8134;49.552;7.632;2023-12-28T17:41:09;9.90;99.90
16060;DHT22;8134;49.552;7.632;2023-12-28T17:43:46;10.00;99.90
16060;DHT22;8134;49.552;7.632;2023-12-28T17:48:51;9.90;99.90
16060;DHT22;8134;49.552;7.632;2023-12-28T17:51:17;9.90;99.90
16060;DHT22;8134;49.552;7.632;2023-12-28T17:53:43;9.90;99.90
16060;DHT22;8134;49.552;7.632;2023-12-28T17:56:08;9.90;99.90
16060;DHT22;8134;49.552;7.632;2023-12-28T17:58:35;9.90;99.90
16060;DHT22;8134;49.552;7.632;2023-12-28T18:01:00;10.00;99.90
16060;DHT22;8134;49.552;7.632;2023-12-28T18:03:26;9.90;99.90
16060;DHT22;8134;49.552;7.632;2023-12-28T18:05:51;9.80;99.90
16060;DHT22;8134;49.552;7.632;2023-12-28T18:08:17;9.90;99.90
16060;DHT22;8134;49.552;7.632;2023-12-28T18:10:42;9.90;99.90
16060;DHT22;8134;49.552;7.632;2023-12-28T18:13:08;9.90;99.90
16060;DHT22;8134;49.552;7.632;2023-12-28T18:15:34;9.90;99.90
16060;DHT22;8134;49.552;7.632;2023-12-28T18:18:00;9.90;99.90
16060;DHT22;8134;49.552;7.632;2023-12-28T18:20:27;9.90;99.90
16060;DHT22;8134;49.552;7.632;2023-12-28T18:22:54;9.90;99.90
16060;DHT22;8134;49.552;7.632;2023-12-28T18:25:23;9.90;99.90
16060;DHT22;8134;49.552;7.632;2023-12-28T18:34:07;9.90;99.90
16060;DHT22;8134;49.552;7.632;2023-12-28T18:57:32;9.80;99.90
16060;DHT22;8134;49.552;7.632;2023-12-28T18:59:59;9.80;99.90
16060;DHT22;8134;49.552;7.632;2023-12-28T19:08:14;9.70;99.90
16060;DHT22;8134;49.552;7.632;2023-12-28T19:34:33;9.80;99.90
16060;DHT22;8134;49.552;7.632;2023-12-28T19:40:03;9.80;99.90
16060;DHT22;8134;49.552;7.632;2023-12-28T19:42:31;9.70;99.90
16060;DHT22;8134;49.552;7.632;2023-12-28T19:44:57;9.80;99.90
16060;DHT22;8134;49.552;7.632;2023-12-28T19:47:25;9.80;99.90
16060;DHT22;8134;49.552;7.632;2023-12-28T19:56:00;9.80;99.90
16060;DHT22;8134;49.552;7.632;2023-12-28T19:58:26;9.80;99.90
16060;DHT22;8134;49.552;7.632;2023-12-28T20:00:53;9.80;99.90
16060;DHT22;8134;49.552;7.632;2023-12-28T20:03:20;9.80;99.90
16060;DHT22;8134;49.552;7.632;2023-12-28T20:05:46;9.80;99.90
16060;DHT22;8134;49.552;7.632;2023-12-28T20:08:14;9.80;99.90
16060;DHT22;8134;49.552;7.632;2023-12-28T20:16:49;9.90;99.90
16060;DHT22;8134;49.552;7.632;2023-12-28T20:19:15;9.90;99.90
16060;DHT22;8134;49.552;7.632;2023-12-28T20:21:42;9.90;99.90
16060;DHT22;8134;49.552;7.632;2023-12-28T20:30:18;9.90;99.90